Walnut Grove, Missouri
Current Conditions -  °F | °C
As of 3:52 AM on Thursday 23 Oct 2014 (Local Time) from KSGF Reporting Station
Clear Clear  
Wind Chill: 53°   Ceiling: Unl
Heat Index: 53°   Visibility: 10mi
Dew Point: 44°   Wind: 10mph
Humidity: 71%   Direction: 160°SSE
Pressure: 30.15"   Gusts: NA
Location:  37.41°N, 93.55°W
Report Text: KSGF 230852Z 16009KT 10SM CLR 12/07 A3015 RMK AO2 SLP205 T01170067 58003
Loading
Personal Weather Stations






























Interactive Weather Map
Tropical Storm Tracking
New forecast layout! Learn more

10-Day Weather Forecast

Advertisements
Track Severe Weather on mobile